Time;durP1;ratioP1;P1;durP2;ratioP2;P2;SDS_P1;SDS_P2;PMS_P1;PMS_P2;Temp;Humidity;BMP_temperature;BMP_pressure;BME280_temperature;BME280_humidity;BME280_pressure;Samples;Min_cycle;Max_cycle;Signal;HPM_P1;HPM_P2
2021/11/16 00:01:42;;;;;;;46.10;17.83;;;7.60;89.90;;;;;;5002623;28;20240;-66
2021/11/16 00:04:09;;;;;;;38.50;18.20;;;7.50;89.80;;;;;;5002461;28;20044;-66
2021/11/16 00:06:35;;;;;;;37.60;16.77;;;7.50;90.10;;;;;;5001989;28;20085;-66
2021/11/16 00:09:02;;;;;;;44.28;17.70;;;7.40;90.30;;;;;;5003118;28;20060;-66
2021/11/16 00:11:28;;;;;;;40.45;18.30;;;7.50;90.20;;;;;;5002599;28;20276;-66
2021/11/16 00:13:54;;;;;;;40.25;16.67;;;7.50;90.10;;;;;;5001954;28;20026;-65
2021/11/16 00:16:21;;;;;;;40.30;17.67;;;7.50;90.00;;;;;;5002765;28;20022;-66
2021/11/16 00:18:50;;;;;;;38.22;17.05;;;7.50;89.90;;;;;;5002962;28;20029;-66
2021/11/16 00:21:19;;;;;;;42.92;17.52;;;7.50;89.70;;;;;;5002545;28;20042;-66
2021/11/16 00:23:47;;;;;;;45.67;18.90;;;7.50;89.70;;;;;;5002740;28;20229;-66
2021/11/16 00:26:14;;;;;;;40.47;16.23;;;7.40;90.00;;;;;;5002439;28;20026;-66
2021/11/16 00:28:40;;;;;;;40.28;16.27;;;7.40;90.10;;;;;;5002181;28;20040;-66
2021/11/16 00:31:06;;;;;;;38.85;17.88;;;7.40;90.20;;;;;;5001369;28;20093;-66
2021/11/16 00:33:32;;;;;;;40.63;17.52;;;7.40;90.30;;;;;;5003126;28;20033;-66
2021/11/16 00:35:58;;;;;;;41.00;17.40;;;7.30;90.30;;;;;;5003346;28;20026;-66
2021/11/16 00:38:26;;;;;;;44.17;16.48;;;7.30;90.40;;;;;;5003227;28;20084;-66
2021/11/16 00:40:52;;;;;;;40.83;16.85;;;7.30;90.70;;;;;;5003017;28;20335;-66
2021/11/16 00:43:18;;;;;;;46.55;17.42;;;7.20;90.70;;;;;;5003195;28;20072;-66
2021/11/16 00:45:46;;;;;;;43.35;18.70;;;7.20;90.80;;;;;;5002734;28;20535;-66
2021/11/16 00:48:13;;;;;;;41.85;16.55;;;7.30;90.50;;;;;;5003160;28;20321;-66
2021/11/16 00:50:41;;;;;;;45.67;18.95;;;7.40;90.00;;;;;;5002765;28;20026;-66
2021/11/16 00:53:07;;;;;;;41.85;17.70;;;7.50;89.80;;;;;;5003094;28;20106;-66
2021/11/16 00:55:33;;;;;;;41.45;17.73;;;7.40;89.70;;;;;;5002291;28;20018;-66
2021/11/16 00:57:59;;;;;;;40.38;17.80;;;7.30;90.10;;;;;;5003039;28;20019;-66
2021/11/16 01:00:27;;;;;;;49.08;19.13;;;7.40;90.20;;;;;;5002940;28;20086;-66
2021/11/16 01:02:54;;;;;;;41.00;17.35;;;7.40;90.10;;;;;;4987190;28;20317;-66
2021/11/16 01:05:20;;;;;;;41.60;17.60;;;7.30;90.20;;;;;;5006056;28;20030;-66
2021/11/16 01:07:46;;;;;;;43.07;18.43;;;7.30;90.20;;;;;;5006634;28;20030;-66
2021/11/16 01:10:14;;;;;;;42.50;18.35;;;7.40;90.20;;;;;;5006925;28;20069;-66
2021/11/16 01:12:40;;;;;;;40.70;18.52;;;7.50;90.00;;;;;;5006074;28;20018;-66
2021/11/16 01:15:07;;;;;;;44.90;19.70;;;7.50;90.00;;;;;;5006907;28;20081;-66
2021/11/16 01:17:33;;;;;;;40.55;17.55;;;7.40;90.00;;;;;;5006799;28;20093;-67
2021/11/16 01:19:58;;;;;;;43.17;18.43;;;7.40;90.10;;;;;;5006928;28;20022;-66
2021/11/16 01:22:25;;;;;;;41.83;18.80;;;7.30;90.30;;;;;;5006449;28;20202;-66
2021/11/16 01:24:51;;;;;;;49.67;19.40;;;7.30;90.30;;;;;;5006519;28;20026;-66
2021/11/16 01:27:20;;;;;;;45.13;18.63;;;7.30;90.20;;;;;;5006692;28;20265;-66
2021/11/16 01:29:50;;;;;;;41.33;17.60;;;7.30;90.50;;;;;;5006634;28;20061;-66
2021/11/16 01:34:52;;;;;;;40.45;16.15;;;7.50;89.70;;;;;;5005418;28;20034;-66
2021/11/16 01:37:18;;;;;;;45.35;19.00;;;7.40;89.70;;;;;;5006485;28;20313;-67
2021/11/16 01:39:44;;;;;;;40.47;16.55;;;7.30;90.00;;;;;;5004593;28;20093;-66
2021/11/16 01:42:10;;;;;;;43.15;16.33;;;7.40;89.90;;;;;;5006113;28;20024;-66
2021/11/16 01:44:35;;;;;;;41.93;18.50;;;7.40;90.00;;;;;;4988992;28;20329;-66
2021/11/16 01:47:01;;;;;;;42.22;17.05;;;7.50;89.30;;;;;;4989151;28;20045;-66
2021/11/16 01:49:27;;;;;;;44.83;16.20;;;7.50;89.00;;;;;;5006377;28;20030;-66
2021/11/16 01:51:53;;;;;;;40.08;16.50;;;7.40;89.30;;;;;;5005881;28;20048;-66
2021/11/16 01:54:19;;;;;;;41.67;17.48;;;7.40;89.80;;;;;;5005035;28;20038;-66
2021/11/16 01:56:46;;;;;;;38.92;17.30;;;7.40;89.60;;;;;;5006133;28;20030;-66
2021/11/16 01:59:12;;;;;;;;;;;7.40;89.50;;;;;;5005840;28;20030;-66
2021/11/16 02:01:38;;;;;;;36.95;17.98;;;7.40;89.50;;;;;;5005367;28;20163;-66
2021/11/16 02:04:05;;;;;;;39.90;17.40;;;7.40;89.40;;;;;;5004917;28;20090;-66
2021/11/16 02:06:36;;;;;;;41.25;17.80;;;7.40;89.50;;;;;;5004955;28;20329;-66
2021/11/16 02:09:05;;;;;;;39.65;18.25;;;7.40;89.70;;;;;;5005999;28;20116;-66
2021/11/16 02:11:30;;;;;;;40.88;17.40;;;7.30;89.80;;;;;;5005009;28;20014;-66
2021/11/16 02:13:57;;;;;;;43.40;18.67;;;7.30;90.10;;;;;;5004777;28;20049;-66
2021/11/16 02:16:22;;;;;;;43.53;17.98;;;7.30;90.00;;;;;;5005369;28;20027;-66
2021/11/16 02:18:48;;;;;;;47.03;18.75;;;7.20;90.20;;;;;;5005800;28;20089;-66
2021/11/16 02:21:14;;;;;;;42.75;18.38;;;7.20;90.10;;;;;;5005812;28;20022;-66
2021/11/16 02:23:41;;;;;;;45.90;18.33;;;7.20;89.90;;;;;;5005632;28;20026;-66
2021/11/16 02:26:07;;;;;;;44.85;19.17;;;7.20;90.20;;;;;;5005584;28;20049;-66
2021/11/16 02:28:34;;;;;;;44.15;17.95;;;7.20;90.10;;;;;;5005529;28;20241;-66
2021/11/16 02:31:00;;;;;;;39.97;17.00;;;7.20;90.20;;;;;;5002514;28;20022;-66
2021/11/16 02:33:26;;;;;;;42.88;19.30;;;7.30;90.10;;;;;;5005297;28;20121;-66
2021/11/16 02:35:52;;;;;;;45.08;17.45;;;7.30;90.00;;;;;;5005224;28;20022;-66
2021/11/16 02:38:19;;;;;;;36.28;17.30;;;7.30;90.00;;;;;;5005392;28;20022;-66
2021/11/16 02:40:45;;;;;;;42.30;18.63;;;7.30;89.80;;;;;;5005222;28;20328;-66
2021/11/16 02:43:11;;;;;;;41.00;18.17;;;7.20;90.40;;;;;;5005209;28;20097;-66
2021/11/16 02:45:37;;;;;;;44.13;18.55;;;7.30;90.30;;;;;;5005095;28;20190;-66
2021/11/16 02:48:11;;;;;;;42.47;17.37;;;7.30;89.90;;;;;;5005305;28;20026;-67
2021/11/16 02:50:46;;;;;;;39.05;16.73;;;7.40;89.80;;;;;;5004937;28;20113;-66
2021/11/16 02:53:15;;;;;;;42.50;18.52;;;7.30;89.70;;;;;;5005138;28;20034;-67
2021/11/16 02:55:41;;;;;;;40.55;18.98;;;7.30;89.80;;;;;;5004997;28;20029;-66
2021/11/16 02:58:07;;;;;;;45.65;18.60;;;7.30;90.00;;;;;;5003991;28;20033;-66
2021/11/16 03:00:34;;;;;;;39.15;17.95;;;7.30;90.00;;;;;;5002946;28;20022;-66
2021/11/16 03:03:00;;;;;;;;;;;7.20;89.80;;;;;;5004344;28;20068;-66
2021/11/16 03:05:34;;;;;;;34.50;14.73;;;7.30;89.80;;;;;;5004924;28;19953;-66
2021/11/16 03:08:02;;;;;;;44.38;17.05;;;7.30;89.50;;;;;;5003755;28;20030;-66
2021/11/16 03:10:30;;;;;;;39.80;17.52;;;7.30;89.50;;;;;;5003400;28;20042;-66
2021/11/16 03:12:57;;;;;;;46.47;18.25;;;7.20;89.30;;;;;;5004703;28;20029;-66
2021/11/16 03:15:23;;;;;;;43.83;17.27;;;7.20;89.90;;;;;;5004475;28;20057;-66
2021/11/16 03:17:51;;;;;;;45.78;18.20;;;7.20;89.70;;;;;;5004085;28;20089;-66
2021/11/16 03:20:17;;;;;;;43.97;17.55;;;7.30;89.70;;;;;;5003520;28;20022;-66
2021/11/16 03:22:54;;;;;;;39.90;17.30;;;7.20;89.80;;;;;;5004256;28;20034;-67
2021/11/16 03:25:24;;;;;;;41.40;17.33;;;7.20;89.70;;;;;;5003001;28;20097;-66
2021/11/16 03:27:55;;;;;;;42.15;18.40;;;7.10;90.00;;;;;;5004466;28;20061;-66
2021/11/16 03:30:22;;;;;;;43.47;18.13;;;7.10;90.10;;;;;;5004058;28;20328;-66
2021/11/16 03:32:48;;;;;;;44.35;18.85;;;7.10;90.20;;;;;;5002988;28;20030;-66
2021/11/16 03:35:14;;;;;;;46.53;18.67;;;7.10;90.10;;;;;;5004273;28;20073;-66
2021/11/16 03:37:44;;;;;;;44.10;19.60;;;7.20;89.40;;;;;;5003178;28;20046;-65
2021/11/16 03:40:11;;;;;;;42.70;18.27;;;7.20;89.20;;;;;;5004257;28;20260;-66
2021/11/16 03:42:45;;;;;;;39.13;18.65;;;7.20;89.20;;;;;;5004073;28;20041;-67
2021/11/16 03:45:11;;;;;;;46.88;18.88;;;7.20;89.60;;;;;;5003991;28;20061;-67
2021/11/16 03:47:37;;;;;;;42.75;18.52;;;7.20;89.50;;;;;;5003984;28;20030;-66
2021/11/16 03:50:06;;;;;;;46.45;17.80;;;7.10;89.50;;;;;;5003023;28;20026;-66
2021/11/16 03:52:35;;;;;;;40.05;18.05;;;7.20;89.30;;;;;;5003589;28;20026;-66
2021/11/16 03:55:02;;;;;;;43.08;18.52;;;7.10;89.70;;;;;;5003886;28;20026;-67
2021/11/16 03:57:29;;;;;;;45.67;18.50;;;7.10;89.80;;;;;;5002753;28;20058;-66
2021/11/16 03:59:55;;;;;;;39.78;17.38;;;7.10;89.90;;;;;;5003269;28;20018;-66
2021/11/16 04:02:20;;;;;;;45.13;20.00;;;7.10;89.70;;;;;;5002183;28;20145;-66
2021/11/16 04:04:50;;;;;;;49.58;20.05;;;7.20;89.20;;;;;;5003707;28;20051;-67
2021/11/16 04:07:16;;;;;;;45.30;17.80;;;7.20;89.20;;;;;;5003695;28;20089;-66
2021/11/16 04:09:43;;;;;;;38.22;17.80;;;7.20;89.20;;;;;;5003678;28;20030;-67
2021/11/16 04:12:09;;;;;;;44.50;17.70;;;7.20;89.20;;;;;;5003364;28;20195;-67
2021/11/16 04:14:35;;;;;;;45.65;19.20;;;7.10;89.40;;;;;;5003612;28;20026;-67
2021/11/16 04:17:01;;;;;;;43.70;18.48;;;7.10;90.00;;;;;;5003327;28;20034;-67
2021/11/16 04:19:27;;;;;;;47.10;19.20;;;7.10;90.00;;;;;;5003615;28;20057;-66
2021/11/16 04:21:53;;;;;;;43.83;18.10;;;7.10;90.00;;;;;;5003221;28;20037;-66
2021/11/16 04:24:18;;;;;;;41.65;18.33;;;7.10;89.70;;;;;;5002370;28;20041;-66
2021/11/16 04:26:44;;;;;;;48.47;19.55;;;7.10;89.60;;;;;;5002314;28;20027;-66
2021/11/16 04:29:10;;;;;;;48.97;18.70;;;7.10;90.00;;;;;;5003275;28;20022;-67
2021/11/16 04:31:36;;;;;;;45.08;18.95;;;7.20;89.30;;;;;;5002301;28;20030;-66
2021/11/16 04:34:06;;;;;;;43.97;18.30;;;7.20;88.50;;;;;;5026065;23;20027;-71
2021/11/16 04:36:33;;;;;;;48.83;19.52;;;7.20;88.70;;;;;;5000920;28;20089;-70
2021/11/16 04:38:59;;;;;;;43.53;18.45;;;7.20;88.80;;;;;;4975359;28;20014;-70
2021/11/16 04:41:25;;;;;;;48.90;17.92;;;7.10;89.50;;;;;;5012976;28;20026;-70
2021/11/16 04:43:51;;;;;;;43.25;18.55;;;7.00;89.50;;;;;;5021368;28;20025;-70
2021/11/16 04:46:20;;;;;;;54.95;20.67;;;7.00;89.20;;;;;;4987783;28;20034;-71
2021/11/16 04:49:06;;;;;;;52.47;19.73;;;7.10;89.20;;;;;;4982306;28;20072;-70
2021/11/16 04:51:54;;;;;;;46.85;18.50;;;7.10;88.80;;;;;;4980213;28;20027;-70
2021/11/16 04:59:41;;;;;;;46.40;17.15;;;7.10;88.80;;;;;;4954482;28;20026;-70
2021/11/16 05:04:52;;;;;;;46.50;17.88;;;7.10;88.40;;;;;;4981355;28;20033;-70
2021/11/16 05:07:20;;;;;;;48.10;20.95;;;7.10;88.00;;;;;;4980968;28;20340;-69
2021/11/16 05:09:47;;;;;;;39.55;18.42;;;7.10;88.00;;;;;;4996276;28;20030;-72
2021/11/16 05:12:13;;;;;;;40.85;18.98;;;7.00;88.30;;;;;;4964861;28;20026;-70
2021/11/16 05:14:38;;;;;;;44.80;19.08;;;7.00;88.80;;;;;;4980492;28;20034;-70
2021/11/16 05:17:04;;;;;;;43.28;18.50;;;7.00;88.60;;;;;;4981846;28;20030;-70
2021/11/16 05:19:30;;;;;;;45.42;18.95;;;6.90;88.90;;;;;;4981603;28;20022;-70
2021/11/16 05:21:56;;;;;;;52.22;20.05;;;7.00;88.80;;;;;;4981624;28;20023;-70
2021/11/16 05:24:24;;;;;;;45.38;19.73;;;7.00;88.70;;;;;;4981590;28;20050;-70
2021/11/16 05:26:54;;;;;;;45.70;19.02;;;6.90;89.20;;;;;;4981805;28;20102;-71
2021/11/16 05:29:20;;;;;;;43.67;17.75;;;6.90;89.60;;;;;;4949424;28;20047;-71
2021/11/16 05:31:46;;;;;;;51.05;20.83;;;6.90;88.90;;;;;;4981429;28;20109;-70
2021/11/16 05:34:12;;;;;;;51.83;20.70;;;6.80;89.30;;;;;;4980825;28;21676;-72
2021/11/16 05:36:38;;;;;;;51.23;20.77;;;6.80;90.00;;;;;;4965091;28;20061;-70
2021/11/16 05:39:04;;;;;;;52.88;20.25;;;6.90;89.50;;;;;;4964844;28;20025;-71
2021/11/16 05:41:30;;;;;;;51.00;20.17;;;6.80;89.50;;;;;;4948917;28;20027;-71
2021/11/16 05:43:56;;;;;;;56.28;19.80;;;6.90;89.30;;;;;;4980798;28;20368;-70
2021/11/16 05:46:23;;;;;;;48.35;20.13;;;6.90;89.30;;;;;;4980286;28;20034;-71
2021/11/16 05:48:53;;;;;;;51.92;20.42;;;6.90;89.00;;;;;;4982014;28;20050;-71
2021/11/16 05:51:25;;;;;;;48.38;18.90;;;6.80;89.60;;;;;;4968024;28;20031;-71
2021/11/16 05:53:57;;;;;;;52.55;20.50;;;6.80;89.90;;;;;;4969162;28;20321;-71
2021/11/16 05:56:28;;;;;;;52.53;20.38;;;6.80;90.10;;;;;;4984259;28;20210;-71
2021/11/16 05:58:57;;;;;;;49.38;21.20;;;6.80;89.70;;;;;;4953674;28;20023;-71
2021/11/16 06:01:26;;;;;;;49.38;19.55;;;6.90;89.10;;;;;;4952526;28;20058;-71
2021/11/16 06:03:52;;;;;;;45.83;20.05;;;6.80;89.00;;;;;;4984364;28;20309;-71
2021/11/16 06:06:39;;;;;;;47.63;21.57;;;6.80;89.30;;;;;;4967796;28;20019;-71
2021/11/16 06:09:06;;;;;;;48.00;19.88;;;6.80;89.20;;;;;;4985597;28;20262;-71
2021/11/16 06:11:32;;;;;;;;;;;6.80;88.90;;;;;;4968492;28;20038;-71
2021/11/16 06:13:58;;;;;;;47.97;18.70;;;6.90;88.70;;;;;;4985428;28;19997;-71
2021/11/16 06:16:24;;;;;;;50.58;20.35;;;6.80;88.70;;;;;;4999904;28;20097;-71
2021/11/16 06:19:01;;;;;;;54.28;19.92;;;6.80;88.90;;;;;;4965573;28;20026;-70
2021/11/16 06:21:28;;;;;;;49.97;20.75;;;6.90;88.50;;;;;;4982985;28;20037;-70
2021/11/16 06:23:54;;;;;;;47.00;19.05;;;6.80;88.70;;;;;;4982863;28;20030;-71
2021/11/16 06:26:21;;;;;;;52.47;21.45;;;6.80;88.60;;;;;;4983633;28;20022;-71
2021/11/16 06:28:47;;;;;;;54.60;18.92;;;6.70;88.50;;;;;;4967319;28;20403;-72
2021/11/16 06:31:14;;;;;;;55.13;21.63;;;6.70;89.20;;;;;;4950024;28;20290;-63
2021/11/16 06:33:40;;;;;;;47.78;19.70;;;6.60;90.00;;;;;;4983628;28;20023;-63
2021/11/16 06:36:07;;;;;;;53.20;19.83;;;6.70;90.30;;;;;;4984465;28;20030;-63
2021/11/16 06:38:33;;;;;;;52.15;19.92;;;6.80;89.60;;;;;;4983464;28;20023;-68
2021/11/16 06:40:59;;;;;;;50.08;20.80;;;6.80;88.90;;;;;;4982874;28;20090;-67
2021/11/16 06:43:31;;;;;;;51.30;21.50;;;6.90;89.30;;;;;;4983209;28;20317;-68
2021/11/16 06:45:59;;;;;;;52.80;20.25;;;6.80;88.80;;;;;;4982262;28;20034;-68
2021/11/16 06:48:25;;;;;;;47.20;19.58;;;6.90;88.40;;;;;;4982818;28;20030;-68
2021/11/16 06:50:51;;;;;;;50.78;22.10;;;6.90;88.30;;;;;;4966657;28;20027;-68
2021/11/16 06:53:34;;;;;;;49.78;22.05;;;6.90;88.30;;;;;;4982774;28;20023;-68
2021/11/16 06:56:01;;;;;;;48.78;20.38;;;6.80;88.90;;;;;;4984349;28;20394;-67
2021/11/16 06:58:27;;;;;;;47.72;19.08;;;6.80;88.50;;;;;;4982041;28;20015;-72
2021/11/16 07:00:54;;;;;;;52.70;18.95;;;6.90;88.30;;;;;;4970721;28;20031;-66
2021/11/16 07:03:22;;;;;;;49.87;21.90;;;6.80;88.50;;;;;;4970002;28;20015;-65
2021/11/16 07:05:53;;;;;;;52.88;21.63;;;6.80;88.70;;;;;;4947485;29;20263;-66
2021/11/16 07:08:41;;;;;;;49.97;21.27;;;6.80;88.50;;;;;;4962670;29;20019;-67
2021/11/16 07:11:25;;;;;;;48.35;23.15;;;6.80;88.60;;;;;;4963097;28;20027;-67
2021/11/16 07:14:04;;;;;;;54.65;20.50;;;6.80;88.50;;;;;;4963604;29;20019;-66
2021/11/16 07:16:41;;;;;;;46.35;21.42;;;6.90;88.30;;;;;;4964546;28;20023;-66
2021/11/16 07:19:08;;;;;;;46.42;19.48;;;6.90;88.00;;;;;;4964408;28;20023;-67
2021/11/16 07:21:48;;;;;;;42.28;18.45;;;6.90;87.40;;;;;;4963300;28;20061;-66
2021/11/16 07:24:20;;;;;;;47.55;19.67;;;6.90;88.00;;;;;;4963070;28;20086;-66
2021/11/16 07:27:02;;;;;;;45.95;17.83;;;7.00;87.30;;;;;;4964494;28;20166;-66
2021/11/16 07:29:45;;;;;;;44.75;19.30;;;6.90;87.50;;;;;;4948134;29;20082;-66
2021/11/16 07:32:24;;;;;;;47.50;20.20;;;7.00;87.40;;;;;;4977643;28;20267;-66
2021/11/16 07:34:51;;;;;;;43.53;18.17;;;6.90;87.70;;;;;;4983326;28;20034;-70
2021/11/16 07:37:20;;;;;;;52.70;19.40;;;6.90;90.10;;;;;;4950692;28;20022;-67
2021/11/16 07:39:51;;;;;;;47.20;19.95;;;7.00;89.40;;;;;;4983473;28;20074;-67
2021/11/16 07:42:17;;;;;;;44.55;19.05;;;7.00;88.60;;;;;;4981892;28;20041;-73
2021/11/16 07:45:10;;;;;;;44.92;18.15;;;6.90;88.40;;;;;;4982345;28;20041;-72
2021/11/16 07:48:00;;;;;;;47.17;19.63;;;7.00;87.80;;;;;;4981405;28;20274;-71
2021/11/16 07:50:32;;;;;;;45.13;20.58;;;7.00;87.60;;;;;;4983136;28;20318;-70
2021/11/16 07:53:36;;;;;;;45.67;18.52;;;7.00;87.90;;;;;;4983633;28;20189;-70
2021/11/16 07:56:18;;;;;;;43.60;17.02;;;6.90;88.00;;;;;;4982004;28;20099;-66
2021/11/16 07:58:59;;;;;;;44.92;18.95;;;6.90;88.30;;;;;;4983249;28;20368;-66
2021/11/16 08:04:18;;;;;;;50.85;19.80;;;7.10;86.90;;;;;;4966093;28;20022;-71
2021/11/16 08:14:43;;;;;;;46.72;19.33;;;7.30;86.30;;;;;;4981695;28;20328;-70
2021/11/16 08:17:10;;;;;;;47.22;19.50;;;7.30;86.20;;;;;;4980993;28;20022;-69
2021/11/16 08:19:38;;;;;;;44.42;17.83;;;7.30;85.80;;;;;;4981114;28;20046;-70
2021/11/16 08:22:12;;;;;;;45.17;19.05;;;7.40;85.80;;;;;;4982097;28;20125;-68
2021/11/16 08:24:45;;;;;;;49.38;19.70;;;7.30;86.00;;;;;;4966433;28;20046;-70
2021/11/16 08:27:20;;;;;;;47.70;20.83;;;7.20;86.00;;;;;;4981566;28;20086;-70
2021/11/16 08:29:58;;;;;;;47.25;19.55;;;7.30;85.90;;;;;;4981353;28;20101;-70
2021/11/16 08:32:24;;;;;;;45.13;17.13;;;7.30;85.80;;;;;;4980253;28;20026;-67
2021/11/16 08:34:56;;;;;;;43.05;17.48;;;7.30;85.30;;;;;;4956664;28;20320;-69
2021/11/16 08:37:25;;;;;;;44.05;17.23;;;7.30;85.20;;;;;;4997623;28;20018;-69
2021/11/16 08:40:00;;;;;;;44.65;19.25;;;7.30;84.80;;;;;;4970302;28;20058;-68
2021/11/16 08:42:31;;;;;;;43.10;18.00;;;7.40;84.10;;;;;;4961812;28;20050;-69
2021/11/16 08:45:13;;;;;;;42.92;17.40;;;7.40;84.60;;;;;;4963013;28;20069;-66
2021/11/16 08:47:42;;;;;;;44.60;18.73;;;7.50;85.40;;;;;;4965452;28;20041;-70
2021/11/16 08:50:37;;;;;;;41.35;18.00;;;7.60;84.80;;;;;;4982167;28;20041;-70
2021/11/16 08:53:09;;;;;;;43.15;18.10;;;7.80;83.00;;;;;;4965427;28;20050;-70
2021/11/16 08:55:37;;;;;;;43.75;18.10;;;7.90;82.50;;;;;;4965277;28;20026;-69
2021/11/16 08:58:05;;;;;;;40.95;17.70;;;7.90;83.00;;;;;;4949468;28;20026;-70
2021/11/16 09:00:51;;;;;;;44.40;18.60;;;7.90;82.90;;;;;;4980599;28;20019;-68
2021/11/16 09:03:30;;;;;;;44.08;17.38;;;8.10;82.00;;;;;;4968637;28;20030;-69
2021/11/16 09:05:58;;;;;;;40.55;17.40;;;8.00;82.60;;;;;;4981159;28;20026;-66
2021/11/16 09:08:31;;;;;;;33.95;15.93;;;8.00;82.00;;;;;;4980590;28;20114;-67
2021/11/16 09:11:14;;;;;;;42.83;17.40;;;7.80;83.20;;;;;;4981408;28;20022;-69
2021/11/16 09:13:40;;;;;;;40.30;17.17;;;7.60;83.60;;;;;;4951432;28;20023;-67
2021/11/16 09:16:13;;;;;;;41.23;18.57;;;7.60;84.30;;;;;;4981952;28;20037;-68
2021/11/16 09:18:52;;;;;;;39.22;17.52;;;7.80;83.40;;;;;;4980217;28;20085;-68
2021/11/16 09:21:23;;;;;;;43.00;17.50;;;7.90;83.00;;;;;;4980808;28;20038;-67
2021/11/16 09:24:07;;;;;;;41.00;17.67;;;8.00;81.70;;;;;;4983022;28;20082;-65
2021/11/16 09:29:06;;;;;;;37.15;17.10;;;7.90;82.50;;;;;;4984928;28;20037;-66
2021/11/16 09:32:02;;;;;;;42.58;17.98;;;7.80;83.00;;;;;;4983461;28;20027;-67
2021/11/16 09:34:43;;;;;;;37.72;16.27;;;7.90;82.50;;;;;;4975651;28;20023;-70
2021/11/16 09:37:17;;;;;;;39.15;17.67;;;8.10;81.30;;;;;;4984689;28;20019;-64
2021/11/16 09:39:51;;;;;;;40.72;16.40;;;8.10;80.90;;;;;;4984897;28;20034;-68
2021/11/16 09:42:22;;;;;;;38.30;16.30;;;8.00;81.00;;;;;;4967365;28;20026;-67
2021/11/16 09:44:52;;;;;;;42.33;17.88;;;8.00;81.20;;;;;;4984931;28;20136;-66
2021/11/16 09:47:28;;;;;;;38.92;17.88;;;8.00;81.00;;;;;;4984329;28;20027;-67
2021/11/16 09:50:00;;;;;;;40.33;16.70;;;8.00;81.70;;;;;;4984544;28;20030;-65
2021/11/16 09:52:25;;;;;;;36.90;17.02;;;7.90;81.80;;;;;;4982873;28;20026;-64
2021/11/16 09:54:57;;;;;;;37.77;16.87;;;7.90;82.30;;;;;;4984790;28;20049;-66
2021/11/16 09:57:34;;;;;;;43.97;17.60;;;7.90;82.30;;;;;;4983434;28;20026;-65
2021/11/16 10:00:18;;;;;;;41.58;17.38;;;7.90;82.40;;;;;;4983766;28;20049;-67
2021/11/16 10:02:49;;;;;;;38.25;16.83;;;7.90;82.60;;;;;;4974340;28;20119;-68
2021/11/16 10:05:21;;;;;;;36.20;16.35;;;8.00;81.90;;;;;;4978006;28;20026;-67
2021/11/16 10:07:55;;;;;;;39.05;17.30;;;8.10;81.70;;;;;;4984332;28;20280;-68
2021/11/16 10:10:23;;;;;;;39.22;15.98;;;8.10;81.10;;;;;;4983450;28;20023;-67
2021/11/16 10:12:54;;;;;;;37.17;15.55;;;8.10;81.10;;;;;;4983976;28;20045;-66
2021/11/16 10:15:23;;;;;;;35.92;14.60;;;8.10;80.80;;;;;;4983304;28;20043;-65
2021/11/16 10:17:49;;;;;;;37.63;15.27;;;8.20;80.80;;;;;;4983367;28;20046;-63
2021/11/16 10:20:25;;;;;;;35.72;15.82;;;8.30;80.20;;;;;;4984346;28;20042;-64
2021/11/16 10:22:53;;;;;;;40.45;16.70;;;8.20;80.00;;;;;;4984129;28;20034;-64
2021/11/16 10:25:23;;;;;;;38.47;17.13;;;8.20;80.10;;;;;;4983597;28;20352;-63
2021/11/16 10:27:51;;;;;;;36.20;17.10;;;8.10;81.00;;;;;;4984103;28;20033;-63
2021/11/16 10:30:26;;;;;;;36.58;16.00;;;8.10;81.20;;;;;;4982773;28;20090;-64
2021/11/16 10:33:16;;;;;;;40.75;16.20;;;8.10;81.40;;;;;;4983761;28;20057;-63
2021/11/16 10:35:52;;;;;;;39.00;17.27;;;8.10;81.60;;;;;;4980453;28;20050;-64
2021/11/16 10:38:30;;;;;;;39.92;16.58;;;8.20;81.60;;;;;;4983417;28;20027;-63
2021/11/16 10:40:58;;;;;;;37.55;15.15;;;8.30;81.10;;;;;;4984050;28;20046;-63
2021/11/16 10:43:41;;;;;;;41.90;16.80;;;8.40;79.70;;;;;;4984323;28;20026;-63
2021/11/16 10:46:07;;;;;;;35.38;15.10;;;8.60;79.50;;;;;;4983789;28;20014;-63
2021/11/16 10:48:33;;;;;;;34.57;16.60;;;8.60;79.00;;;;;;4983619;28;20452;-66
2021/11/16 10:51:07;;;;;;;42.37;16.73;;;8.70;78.50;;;;;;5007908;23;20023;-64
2021/11/16 10:53:33;;;;;;;32.03;14.88;;;8.70;78.30;;;;;;5032444;28;20055;-65
2021/11/16 10:56:00;;;;;;;37.33;17.07;;;8.60;78.60;;;;;;5045161;28;20030;-65
2021/11/16 10:58:41;;;;;;;31.67;14.73;;;8.70;78.60;;;;;;5044254;28;20048;-65
2021/11/16 11:01:15;;;;;;;37.67;17.58;;;8.80;78.10;;;;;;5044006;28;20037;-65
2021/11/16 11:03:50;;;;;;;36.58;16.58;;;8.60;78.70;;;;;;5043922;28;20032;-65
2021/11/16 11:06:24;;;;;;;35.55;16.60;;;8.70;78.80;;;;;;5044409;28;20021;-65
2021/11/16 11:08:58;;;;;;;37.28;15.95;;;8.70;79.00;;;;;;5042787;28;20084;-65
2021/11/16 11:11:28;;;;;;;35.88;16.98;;;8.60;79.00;;;;;;5042578;28;20030;-65
2021/11/16 11:14:07;;;;;;;39.30;15.40;;;8.60;79.40;;;;;;5043977;28;20052;-66
2021/11/16 11:16:39;;;;;;;38.75;16.17;;;8.50;79.40;;;;;;5044114;28;20017;-65
2021/11/16 11:19:18;;;;;;;39.22;17.00;;;8.60;79.00;;;;;;5044110;28;20058;-65
2021/11/16 11:21:48;;;;;;;38.67;14.93;;;8.50;79.30;;;;;;5041282;28;20033;-66
2021/11/16 11:24:19;;;;;;;33.25;15.93;;;8.50;79.30;;;;;;5018673;28;20037;-65
2021/11/16 11:26:54;;;;;;;39.03;17.15;;;8.50;79.50;;;;;;5023646;28;20100;-65
2021/11/16 11:29:38;;;;;;;39.25;16.50;;;8.50;79.60;;;;;;5023731;28;20332;-65
2021/11/16 11:32:12;;;;;;;36.08;16.38;;;8.50;79.40;;;;;;5023420;28;20030;-65
2021/11/16 11:34:59;;;;;;;36.53;16.42;;;8.50;79.50;;;;;;5023755;28;20089;-65
2021/11/16 11:37:49;;;;;;;34.33;14.88;;;8.40;80.10;;;;;;5023493;28;20208;-65
2021/11/16 11:40:28;;;;;;;31.80;14.18;;;8.40;80.50;;;;;;5003338;28;20018;-65
2021/11/16 11:42:59;;;;;;;36.97;15.55;;;8.50;80.20;;;;;;5003726;28;20049;-66
2021/11/16 11:45:38;;;;;;;38.67;17.02;;;8.60;79.70;;;;;;5003106;28;20093;-65
2021/11/16 11:48:04;;;;;;;36.92;15.75;;;8.50;79.80;;;;;;5002616;28;20248;-65
2021/11/16 11:50:36;;;;;;;42.87;17.87;;;8.60;79.90;;;;;;5003107;28;20026;-65
2021/11/16 11:53:26;;;;;;;35.75;16.52;;;8.60;79.40;;;;;;5005028;28;20252;-65
2021/11/16 11:56:07;;;;;;;38.72;16.50;;;8.60;79.80;;;;;;5031796;28;20268;-65
2021/11/16 11:58:36;;;;;;;34.33;15.55;;;8.50;80.30;;;;;;5022769;28;20022;-65
2021/11/16 12:01:15;;;;;;;35.10;15.65;;;8.40;80.50;;;;;;5021865;28;20014;-65
2021/11/16 12:03:45;;;;;;;33.65;15.68;;;8.40;80.90;;;;;;5022013;28;20025;-65
2021/11/16 12:06:11;;;;;;;36.67;16.42;;;8.30;81.70;;;;;;5018257;28;20029;-65
2021/11/16 12:08:36;;;;;;;40.40;18.00;;;8.30;81.50;;;;;;5021886;28;20018;-65
2021/11/16 12:11:03;;;;;;;41.33;16.65;;;8.30;82.20;;;;;;5021543;28;20018;-65
2021/11/16 12:13:31;;;;;;;32.75;16.30;;;8.40;81.40;;;;;;5020936;28;20030;-65
2021/11/16 12:16:13;;;;;;;39.10;16.73;;;8.50;80.90;;;;;;5020342;28;20045;-65
2021/11/16 12:18:42;;;;;;;34.97;15.77;;;8.40;81.40;;;;;;5004715;28;20079;-65
2021/11/16 12:21:35;;;;;;;37.00;15.85;;;8.60;80.70;;;;;;5021106;28;20137;-65
2021/11/16 12:24:10;;;;;;;30.73;15.07;;;8.50;80.40;;;;;;5021596;28;20308;-65
2021/11/16 12:26:55;;;;;;;32.22;14.43;;;8.60;80.10;;;;;;5021889;28;20332;-66
2021/11/16 12:29:31;;;;;;;40.85;16.08;;;8.50;80.50;;;;;;5020440;28;20356;-65
2021/11/16 12:32:18;;;;;;;35.97;16.17;;;8.40;81.40;;;;;;5020254;28;20098;-65
2021/11/16 12:34:55;;;;;;;40.80;17.20;;;8.30;81.50;;;;;;5002145;28;20331;-65
2021/11/16 12:37:31;;;;;;;37.67;17.50;;;8.20;81.80;;;;;;5010021;28;20040;-65
2021/11/16 12:40:03;;;;;;;33.38;16.33;;;8.30;81.80;;;;;;5020647;28;20032;-65
2021/11/16 12:42:29;;;;;;;36.42;16.38;;;8.40;81.90;;;;;;5028373;28;20049;-65
2021/11/16 12:44:58;;;;;;;37.50;15.57;;;8.30;82.20;;;;;;5021675;28;20029;-65
2021/11/16 12:47:25;;;;;;;35.60;14.55;;;8.40;81.40;;;;;;5020232;28;20093;-65
2021/11/16 12:49:53;;;;;;;32.28;15.32;;;8.50;80.80;;;;;;5020770;28;20124;-65
2021/11/16 12:52:23;;;;;;;32.95;14.90;;;8.50;80.30;;;;;;5020513;28;20194;-65
2021/11/16 12:54:49;;;;;;;34.10;16.15;;;8.30;80.80;;;;;;5021663;28;20125;-65
2021/11/16 12:57:21;;;;;;;32.55;16.58;;;8.40;80.60;;;;;;5021602;28;20224;-65
2021/11/16 12:59:47;;;;;;;37.72;15.70;;;8.40;80.80;;;;;;5019632;28;20340;-65
2021/11/16 13:02:57;;;;;;;37.37;16.53;;;8.40;81.10;;;;;;5020772;28;20048;-65
2021/11/16 13:05:38;;;;;;;32.78;15.65;;;8.30;81.60;;;;;;5016458;28;20269;-66
2021/11/16 13:08:05;;;;;;;33.38;15.70;;;8.40;81.00;;;;;;5020550;28;20029;-66
2021/11/16 13:10:50;;;;;;;35.92;15.35;;;8.40;80.90;;;;;;5021068;28;20040;-66
2021/11/16 13:13:24;;;;;;;33.85;16.17;;;8.40;81.30;;;;;;5021291;28;20268;-66
2021/11/16 13:16:01;;;;;;;34.85;15.63;;;8.30;81.70;;;;;;5020504;28;20225;-66
2021/11/16 13:18:30;;;;;;;34.15;14.75;;;8.20;82.20;;;;;;5021233;28;20236;-66
2021/11/16 13:21:07;;;;;;;32.85;15.27;;;8.20;82.20;;;;;;5020801;28;20321;-66